Enter the Airport ICAO Code

Search by Airport or City

Current Weather

SARI | Cataratas del Iguaz˙ International Airport

Puerto Iguaz˙,áMisiones, Argentina

Last Update 11 Minutes Ago

Clear Sky

Temperature of 18 ║C

Calm Wind

Temperature

18 ║C

Dew Point Temperature

17 ║C

Relative Humidity

93.92 %

Wind Direction

None

Wind Velocity

0 km/h (0 kt)

Gusts

None

Visibility

No Significant Reductions

Sea Level Pressure

1012 hPa (Hectopascals)

Layers of Clouds

None

METAR SARI 091000Z 00000KT CAVOK 18/17 Q1012

Weather Forecast

SARI | Cataratas del Iguaz˙ International Airport

Puerto Iguaz˙,áMisiones, Argentina

Forecast valid for the next 20 Hours

From now on it is expected:

Clear Sky

Calm Wind

Maximum Temperature

33 ║C in 9 Hours

Minimum Temperature

17 ║C in 0 Hours

TAF SARI 090500Z 0906/1006 00000KT CAVOK TX33/0919Z TN17/0910Z PROB30 0907/0911 3000 BR NSC